sensor_id;sensor_type;location;lat;lon;timestamp;P1;durP1;ratioP1;P2;durP2;ratioP2
727;SDS011;347;48.780;9.158;2022-08-24T00:01:12;11.93;;;11.43;;
727;SDS011;347;48.780;9.158;2022-08-24T00:03:40;11.10;;;10.60;;
727;SDS011;347;48.780;9.158;2022-08-24T00:06:08;11.23;;;10.70;;
727;SDS011;347;48.780;9.158;2022-08-24T00:08:35;11.97;;;11.37;;
727;SDS011;347;48.780;9.158;2022-08-24T00:11:02;11.60;;;11.07;;
727;SDS011;347;48.780;9.158;2022-08-24T00:13:28;11.33;;;10.73;;
727;SDS011;347;48.780;9.158;2022-08-24T00:15:54;11.93;;;11.23;;
727;SDS011;347;48.780;9.158;2022-08-24T00:18:20;11.23;;;10.73;;
727;SDS011;347;48.780;9.158;2022-08-24T00:20:46;11.47;;;10.97;;
727;SDS011;347;48.780;9.158;2022-08-24T00:23:12;11.67;;;11.07;;
727;SDS011;347;48.780;9.158;2022-08-24T00:25:38;11.00;;;10.50;;
727;SDS011;347;48.780;9.158;2022-08-24T00:28:04;12.83;;;12.00;;
727;SDS011;347;48.780;9.158;2022-08-24T00:30:31;11.43;;;10.93;;
727;SDS011;347;48.780;9.158;2022-08-24T00:32:58;11.50;;;10.90;;
727;SDS011;347;48.780;9.158;2022-08-24T00:35:24;12.40;;;11.40;;
727;SDS011;347;48.780;9.158;2022-08-24T00:37:50;11.70;;;11.10;;
727;SDS011;347;48.780;9.158;2022-08-24T00:40:19;11.60;;;11.00;;
727;SDS011;347;48.780;9.158;2022-08-24T00:42:45;12.53;;;11.50;;
727;SDS011;347;48.780;9.158;2022-08-24T00:45:12;12.00;;;11.40;;
727;SDS011;347;48.780;9.158;2022-08-24T00:47:51;11.43;;;10.80;;
727;SDS011;347;48.780;9.158;2022-08-24T00:50:34;12.60;;;11.60;;
727;SDS011;347;48.780;9.158;2022-08-24T00:53:05;15.73;;;11.50;;
727;SDS011;347;48.780;9.158;2022-08-24T00:55:37;11.70;;;11.10;;
727;SDS011;347;48.780;9.158;2022-08-24T00:58:08;12.33;;;11.63;;
727;SDS011;347;48.780;9.158;2022-08-24T01:00:44;11.20;;;10.80;;
727;SDS011;347;48.780;9.158;2022-08-24T01:03:17;11.70;;;11.20;;
727;SDS011;347;48.780;9.158;2022-08-24T01:05:43;14.63;;;12.37;;
727;SDS011;347;48.780;9.158;2022-08-24T01:08:09;12.20;;;11.60;;
727;SDS011;347;48.780;9.158;2022-08-24T01:10:45;11.87;;;11.37;;
727;SDS011;347;48.780;9.158;2022-08-24T01:13:14;11.93;;;11.33;;
727;SDS011;347;48.780;9.158;2022-08-24T01:15:41;12.50;;;11.90;;
727;SDS011;347;48.780;9.158;2022-08-24T01:18:11;13.20;;;12.43;;
727;SDS011;347;48.780;9.158;2022-08-24T01:21:03;12.13;;;11.43;;
727;SDS011;347;48.780;9.158;2022-08-24T01:23:51;11.50;;;10.87;;
727;SDS011;347;48.780;9.158;2022-08-24T01:26:36;12.47;;;11.43;;
727;SDS011;347;48.780;9.158;2022-08-24T01:29:07;12.23;;;11.67;;
727;SDS011;347;48.780;9.158;2022-08-24T01:31:35;12.73;;;12.00;;
727;SDS011;347;48.780;9.158;2022-08-24T01:34:02;12.50;;;11.57;;
727;SDS011;347;48.780;9.158;2022-08-24T01:36:33;11.73;;;11.03;;
727;SDS011;347;48.780;9.158;2022-08-24T01:39:14;12.40;;;11.70;;
727;SDS011;347;48.780;9.158;2022-08-24T01:41:44;12.53;;;11.83;;
727;SDS011;347;48.780;9.158;2022-08-24T01:44:11;12.07;;;11.50;;
727;SDS011;347;48.780;9.158;2022-08-24T01:46:41;11.60;;;11.10;;
727;SDS011;347;48.780;9.158;2022-08-24T01:49:12;11.90;;;11.40;;
727;SDS011;347;48.780;9.158;2022-08-24T01:51:38;11.97;;;11.47;;
727;SDS011;347;48.780;9.158;2022-08-24T01:54:05;11.83;;;11.23;;
727;SDS011;347;48.780;9.158;2022-08-24T01:56:31;12.73;;;12.10;;
727;SDS011;347;48.780;9.158;2022-08-24T01:58:57;11.70;;;11.20;;
727;SDS011;347;48.780;9.158;2022-08-24T02:01:24;12.00;;;11.33;;
727;SDS011;347;48.780;9.158;2022-08-24T02:03:52;11.70;;;11.20;;
727;SDS011;347;48.780;9.158;2022-08-24T02:06:18;12.63;;;12.03;;
727;SDS011;347;48.780;9.158;2022-08-24T02:08:44;12.63;;;12.03;;
727;SDS011;347;48.780;9.158;2022-08-24T02:11:10;13.13;;;12.43;;
727;SDS011;347;48.780;9.158;2022-08-24T02:13:37;13.03;;;12.23;;
727;SDS011;347;48.780;9.158;2022-08-24T02:16:04;13.10;;;11.93;;
727;SDS011;347;48.780;9.158;2022-08-24T02:18:31;13.73;;;12.63;;
727;SDS011;347;48.780;9.158;2022-08-24T02:20:58;12.63;;;12.13;;
727;SDS011;347;48.780;9.158;2022-08-24T02:23:24;12.50;;;11.80;;
727;SDS011;347;48.780;9.158;2022-08-24T02:25:50;12.23;;;11.73;;
727;SDS011;347;48.780;9.158;2022-08-24T02:28:16;13.20;;;12.47;;
727;SDS011;347;48.780;9.158;2022-08-24T02:30:42;12.90;;;12.30;;
727;SDS011;347;48.780;9.158;2022-08-24T02:33:08;13.00;;;12.40;;
727;SDS011;347;48.780;9.158;2022-08-24T02:35:34;13.60;;;12.77;;
727;SDS011;347;48.780;9.158;2022-08-24T02:38:00;13.57;;;12.97;;
727;SDS011;347;48.780;9.158;2022-08-24T02:40:25;13.83;;;13.03;;
727;SDS011;347;48.780;9.158;2022-08-24T02:42:51;13.67;;;13.07;;
727;SDS011;347;48.780;9.158;2022-08-24T02:45:17;13.20;;;12.50;;
727;SDS011;347;48.780;9.158;2022-08-24T02:47:43;13.57;;;12.77;;
727;SDS011;347;48.780;9.158;2022-08-24T02:50:10;14.67;;;13.70;;
727;SDS011;347;48.780;9.158;2022-08-24T02:52:38;13.60;;;13.00;;
727;SDS011;347;48.780;9.158;2022-08-24T02:55:06;14.10;;;13.40;;
727;SDS011;347;48.780;9.158;2022-08-24T02:57:33;14.30;;;13.40;;
727;SDS011;347;48.780;9.158;2022-08-24T02:59:59;15.23;;;13.93;;
727;SDS011;347;48.780;9.158;2022-08-24T03:02:25;14.60;;;13.60;;
727;SDS011;347;48.780;9.158;2022-08-24T03:04:51;13.70;;;12.80;;
727;SDS011;347;48.780;9.158;2022-08-24T03:07:17;14.27;;;13.57;;
727;SDS011;347;48.780;9.158;2022-08-24T03:09:43;14.53;;;13.73;;
727;SDS011;347;48.780;9.158;2022-08-24T03:12:09;14.63;;;13.83;;
727;SDS011;347;48.780;9.158;2022-08-24T03:14:35;14.67;;;13.47;;
727;SDS011;347;48.780;9.158;2022-08-24T03:17:01;14.60;;;13.83;;
727;SDS011;347;48.780;9.158;2022-08-24T03:19:28;14.93;;;13.90;;
727;SDS011;347;48.780;9.158;2022-08-24T03:21:53;14.33;;;13.60;;
727;SDS011;347;48.780;9.158;2022-08-24T03:24:19;15.30;;;14.00;;
727;SDS011;347;48.780;9.158;2022-08-24T03:26:45;15.30;;;14.30;;
727;SDS011;347;48.780;9.158;2022-08-24T03:29:12;13.60;;;13.00;;
727;SDS011;347;48.780;9.158;2022-08-24T03:31:39;15.10;;;14.30;;
727;SDS011;347;48.780;9.158;2022-08-24T03:34:05;14.03;;;13.07;;
727;SDS011;347;48.780;9.158;2022-08-24T03:36:31;14.50;;;13.60;;
727;SDS011;347;48.780;9.158;2022-08-24T03:38:56;14.43;;;13.73;;
727;SDS011;347;48.780;9.158;2022-08-24T03:41:22;13.40;;;12.80;;
727;SDS011;347;48.780;9.158;2022-08-24T03:43:48;14.07;;;13.13;;
727;SDS011;347;48.780;9.158;2022-08-24T03:46:27;13.37;;;12.77;;
727;SDS011;347;48.780;9.158;2022-08-24T03:48:53;14.23;;;13.30;;
727;SDS011;347;48.780;9.158;2022-08-24T03:51:22;14.37;;;13.50;;
727;SDS011;347;48.780;9.158;2022-08-24T03:53:50;14.47;;;13.73;;
727;SDS011;347;48.780;9.158;2022-08-24T03:56:16;14.53;;;13.50;;
727;SDS011;347;48.780;9.158;2022-08-24T03:58:43;14.07;;;13.37;;
727;SDS011;347;48.780;9.158;2022-08-24T04:01:09;13.07;;;12.50;;
727;SDS011;347;48.780;9.158;2022-08-24T04:03:39;15.00;;;14.00;;
727;SDS011;347;48.780;9.158;2022-08-24T04:06:07;14.50;;;13.87;;
727;SDS011;347;48.780;9.158;2022-08-24T04:08:34;14.60;;;13.80;;
727;SDS011;347;48.780;9.158;2022-08-24T04:11:00;15.30;;;14.20;;
727;SDS011;347;48.780;9.158;2022-08-24T04:13:26;14.70;;;13.90;;
727;SDS011;347;48.780;9.158;2022-08-24T04:15:55;14.60;;;13.60;;
727;SDS011;347;48.780;9.158;2022-08-24T04:18:28;14.07;;;13.50;;
727;SDS011;347;48.780;9.158;2022-08-24T04:20:53;14.77;;;13.93;;
727;SDS011;347;48.780;9.158;2022-08-24T04:23:19;13.90;;;13.20;;
727;SDS011;347;48.780;9.158;2022-08-24T04:25:46;15.03;;;14.23;;
727;SDS011;347;48.780;9.158;2022-08-24T04:28:13;14.73;;;14.03;;
727;SDS011;347;48.780;9.158;2022-08-24T04:30:42;15.43;;;14.60;;
727;SDS011;347;48.780;9.158;2022-08-24T04:33:10;15.10;;;14.23;;
727;SDS011;347;48.780;9.158;2022-08-24T04:35:37;13.50;;;12.90;;
727;SDS011;347;48.780;9.158;2022-08-24T04:38:07;14.40;;;13.80;;
727;SDS011;347;48.780;9.158;2022-08-24T04:40:33;15.33;;;14.33;;
727;SDS011;347;48.780;9.158;2022-08-24T04:42:59;15.40;;;14.70;;
727;SDS011;347;48.780;9.158;2022-08-24T04:45:26;14.90;;;14.10;;
727;SDS011;347;48.780;9.158;2022-08-24T04:47:52;15.70;;;14.90;;
727;SDS011;347;48.780;9.158;2022-08-24T04:50:18;14.97;;;14.23;;
727;SDS011;347;48.780;9.158;2022-08-24T04:52:44;14.60;;;14.00;;
727;SDS011;347;48.780;9.158;2022-08-24T04:55:10;15.03;;;14.23;;
727;SDS011;347;48.780;9.158;2022-08-24T04:57:36;14.87;;;13.90;;
727;SDS011;347;48.780;9.158;2022-08-24T05:00:03;14.80;;;14.00;;
727;SDS011;347;48.780;9.158;2022-08-24T05:02:30;15.20;;;14.27;;
727;SDS011;347;48.780;9.158;2022-08-24T05:04:56;15.07;;;14.20;;
727;SDS011;347;48.780;9.158;2022-08-24T05:07:22;14.57;;;13.63;;
727;SDS011;347;48.780;9.158;2022-08-24T05:09:48;15.33;;;14.50;;
727;SDS011;347;48.780;9.158;2022-08-24T05:12:13;15.00;;;14.30;;
727;SDS011;347;48.780;9.158;2022-08-24T05:14:39;15.50;;;14.60;;
727;SDS011;347;48.780;9.158;2022-08-24T05:17:05;15.13;;;14.43;;
727;SDS011;347;48.780;9.158;2022-08-24T05:19:31;13.80;;;13.20;;
727;SDS011;347;48.780;9.158;2022-08-24T05:21:56;15.73;;;14.27;;
727;SDS011;347;48.780;9.158;2022-08-24T05:24:22;15.03;;;14.23;;
727;SDS011;347;48.780;9.158;2022-08-24T05:26:48;14.93;;;14.03;;
727;SDS011;347;48.780;9.158;2022-08-24T05:29:15;15.67;;;14.70;;
727;SDS011;347;48.780;9.158;2022-08-24T05:31:42;15.80;;;14.90;;
727;SDS011;347;48.780;9.158;2022-08-24T05:34:10;16.63;;;15.63;;
727;SDS011;347;48.780;9.158;2022-08-24T05:36:36;16.37;;;15.47;;
727;SDS011;347;48.780;9.158;2022-08-24T05:39:05;16.53;;;15.57;;
727;SDS011;347;48.780;9.158;2022-08-24T05:41:32;16.30;;;15.40;;
727;SDS011;347;48.780;9.158;2022-08-24T05:43:58;15.97;;;14.97;;
727;SDS011;347;48.780;9.158;2022-08-24T05:46:25;16.47;;;15.37;;
727;SDS011;347;48.780;9.158;2022-08-24T05:48:51;16.97;;;15.73;;
727;SDS011;347;48.780;9.158;2022-08-24T05:51:17;18.03;;;16.80;;
727;SDS011;347;48.780;9.158;2022-08-24T05:53:43;16.63;;;15.70;;
727;SDS011;347;48.780;9.158;2022-08-24T05:56:11;15.80;;;14.70;;
727;SDS011;347;48.780;9.158;2022-08-24T05:58:38;16.00;;;15.00;;
727;SDS011;347;48.780;9.158;2022-08-24T06:01:08;16.50;;;15.20;;
727;SDS011;347;48.780;9.158;2022-08-24T06:03:36;15.33;;;14.53;;
727;SDS011;347;48.780;9.158;2022-08-24T06:06:03;17.13;;;16.20;;
727;SDS011;347;48.780;9.158;2022-08-24T06:08:33;17.17;;;15.90;;
727;SDS011;347;48.780;9.158;2022-08-24T06:11:03;16.60;;;15.80;;
727;SDS011;347;48.780;9.158;2022-08-24T06:13:30;16.40;;;15.60;;
727;SDS011;347;48.780;9.158;2022-08-24T06:16:01;16.00;;;15.20;;
727;SDS011;347;48.780;9.158;2022-08-24T06:18:31;15.80;;;14.70;;
727;SDS011;347;48.780;9.158;2022-08-24T06:20:57;16.17;;;15.37;;
727;SDS011;347;48.780;9.158;2022-08-24T06:23:27;17.57;;;16.70;;
727;SDS011;347;48.780;9.158;2022-08-24T06:25:52;17.10;;;15.90;;
727;SDS011;347;48.780;9.158;2022-08-24T06:28:37;17.97;;;16.90;;
727;SDS011;347;48.780;9.158;2022-08-24T06:31:03;17.27;;;16.30;;
727;SDS011;347;48.780;9.158;2022-08-24T06:33:31;16.90;;;15.80;;
727;SDS011;347;48.780;9.158;2022-08-24T06:35:56;16.43;;;15.23;;
727;SDS011;347;48.780;9.158;2022-08-24T06:38:22;16.90;;;16.10;;
727;SDS011;347;48.780;9.158;2022-08-24T06:40:48;15.80;;;15.00;;
727;SDS011;347;48.780;9.158;2022-08-24T06:43:13;17.33;;;16.53;;
727;SDS011;347;48.780;9.158;2022-08-24T06:45:40;17.83;;;16.80;;
727;SDS011;347;48.780;9.158;2022-08-24T06:48:06;17.50;;;16.17;;
727;SDS011;347;48.780;9.158;2022-08-24T06:50:32;16.60;;;15.57;;
727;SDS011;347;48.780;9.158;2022-08-24T06:52:58;16.43;;;15.50;;
727;SDS011;347;48.780;9.158;2022-08-24T06:55:25;16.30;;;15.50;;
727;SDS011;347;48.780;9.158;2022-08-24T06:57:51;15.90;;;15.20;;
727;SDS011;347;48.780;9.158;2022-08-24T07:00:17;17.83;;;16.53;;
727;SDS011;347;48.780;9.158;2022-08-24T07:02:43;18.10;;;17.20;;
727;SDS011;347;48.780;9.158;2022-08-24T07:05:09;17.67;;;16.77;;
727;SDS011;347;48.780;9.158;2022-08-24T07:07:34;17.13;;;16.23;;
727;SDS011;347;48.780;9.158;2022-08-24T07:10:00;17.53;;;16.60;;
727;SDS011;347;48.780;9.158;2022-08-24T07:12:26;17.30;;;15.90;;
727;SDS011;347;48.780;9.158;2022-08-24T07:14:51;15.93;;;15.10;;
727;SDS011;347;48.780;9.158;2022-08-24T07:17:17;17.00;;;16.10;;
727;SDS011;347;48.780;9.158;2022-08-24T07:19:44;16.70;;;15.70;;
727;SDS011;347;48.780;9.158;2022-08-24T07:22:10;16.00;;;15.30;;
727;SDS011;347;48.780;9.158;2022-08-24T07:24:37;16.87;;;15.60;;
727;SDS011;347;48.780;9.158;2022-08-24T07:27:03;15.97;;;15.27;;
727;SDS011;347;48.780;9.158;2022-08-24T07:29:30;16.57;;;15.87;;
727;SDS011;347;48.780;9.158;2022-08-24T07:31:56;17.17;;;16.27;;
727;SDS011;347;48.780;9.158;2022-08-24T07:34:22;16.73;;;15.73;;
727;SDS011;347;48.780;9.158;2022-08-24T07:36:48;15.60;;;14.70;;
727;SDS011;347;48.780;9.158;2022-08-24T07:39:14;16.67;;;15.83;;
727;SDS011;347;48.780;9.158;2022-08-24T07:41:41;14.50;;;13.90;;
727;SDS011;347;48.780;9.158;2022-08-24T07:44:09;15.83;;;15.03;;
727;SDS011;347;48.780;9.158;2022-08-24T07:46:36;16.47;;;15.37;;
727;SDS011;347;48.780;9.158;2022-08-24T07:49:03;16.67;;;15.33;;
727;SDS011;347;48.780;9.158;2022-08-24T07:51:30;17.30;;;15.90;;
727;SDS011;347;48.780;9.158;2022-08-24T07:53:56;17.87;;;16.60;;
727;SDS011;347;48.780;9.158;2022-08-24T07:56:22;17.17;;;16.27;;
727;SDS011;347;48.780;9.158;2022-08-24T07:58:47;16.10;;;14.87;;
727;SDS011;347;48.780;9.158;2022-08-24T08:01:13;17.03;;;16.03;;
727;SDS011;347;48.780;9.158;2022-08-24T08:03:39;19.07;;;16.97;;
727;SDS011;347;48.780;9.158;2022-08-24T08:06:07;17.73;;;16.07;;
727;SDS011;347;48.780;9.158;2022-08-24T08:08:37;16.47;;;15.67;;
727;SDS011;347;48.780;9.158;2022-08-24T08:11:04;15.50;;;14.70;;
727;SDS011;347;48.780;9.158;2022-08-24T08:13:31;16.40;;;14.87;;
727;SDS011;347;48.780;9.158;2022-08-24T08:15:57;16.00;;;14.83;;
727;SDS011;347;48.780;9.158;2022-08-24T08:18:23;16.03;;;15.10;;
727;SDS011;347;48.780;9.158;2022-08-24T08:20:50;14.60;;;14.00;;
727;SDS011;347;48.780;9.158;2022-08-24T08:23:16;15.00;;;14.40;;
727;SDS011;347;48.780;9.158;2022-08-24T08:26:01;14.13;;;13.63;;
727;SDS011;347;48.780;9.158;2022-08-24T08:28:27;14.00;;;13.40;;
727;SDS011;347;48.780;9.158;2022-08-24T08:31:00;13.13;;;12.63;;
727;SDS011;347;48.780;9.158;2022-08-24T08:33:27;13.13;;;12.53;;
727;SDS011;347;48.780;9.158;2022-08-24T08:38:28;15.97;;;14.57;;
727;SDS011;347;48.780;9.158;2022-08-24T08:43:39;13.83;;;13.23;;
727;SDS011;347;48.780;9.158;2022-08-24T08:49:02;13.50;;;12.90;;
727;SDS011;347;48.780;9.158;2022-08-24T08:54:19;13.37;;;12.77;;
727;SDS011;347;48.780;9.158;2022-08-24T09:08:25;14.40;;;13.30;;
727;SDS011;347;48.780;9.158;2022-08-24T09:11:17;12.80;;;12.30;;
727;SDS011;347;48.780;9.158;2022-08-24T09:14:09;17.73;;;12.70;;
727;SDS011;347;48.780;9.158;2022-08-24T09:16:51;13.50;;;12.80;;
727;SDS011;347;48.780;9.158;2022-08-24T09:22:19;14.57;;;13.77;;
727;SDS011;347;48.780;9.158;2022-08-24T09:35:14;13.27;;;12.67;;
727;SDS011;347;48.780;9.158;2022-08-24T09:40:50;13.00;;;12.30;;
727;SDS011;347;48.780;9.158;2022-08-24T09:44:11;12.43;;;12.00;;
727;SDS011;347;48.780;9.158;2022-08-24T10:09:18;11.73;;;11.13;;
727;SDS011;347;48.780;9.158;2022-08-24T10:12:03;11.93;;;11.50;;
727;SDS011;347;48.780;9.158;2022-08-24T10:14:57;13.30;;;12.23;;
727;SDS011;347;48.780;9.158;2022-08-24T10:17:38;12.53;;;12.03;;
727;SDS011;347;48.780;9.158;2022-08-24T10:20:19;13.00;;;12.40;;
727;SDS011;347;48.780;9.158;2022-08-24T10:23:15;12.63;;;12.20;;
727;SDS011;347;48.780;9.158;2022-08-24T10:53:58;12.50;;;11.90;;
727;SDS011;347;48.780;9.158;2022-08-24T10:56:59;11.80;;;11.30;;
727;SDS011;347;48.780;9.158;2022-08-24T10:59:30;12.77;;;12.07;;
727;SDS011;347;48.780;9.158;2022-08-24T11:04:34;12.30;;;11.83;;
727;SDS011;347;48.780;9.158;2022-08-24T11:07:12;12.50;;;11.97;;
727;SDS011;347;48.780;9.158;2022-08-24T11:12:30;11.50;;;11.00;;
727;SDS011;347;48.780;9.158;2022-08-24T11:14:59;12.00;;;11.50;;
727;SDS011;347;48.780;9.158;2022-08-24T11:17:27;11.70;;;11.30;;
727;SDS011;347;48.780;9.158;2022-08-24T11:19:55;12.23;;;11.73;;
727;SDS011;347;48.780;9.158;2022-08-24T11:25:31;11.23;;;10.73;;
727;SDS011;347;48.780;9.158;2022-08-24T11:28:05;11.73;;;11.13;;
727;SDS011;347;48.780;9.158;2022-08-24T11:30:39;11.00;;;10.60;;
727;SDS011;347;48.780;9.158;2022-08-24T11:33:05;11.43;;;11.03;;
727;SDS011;347;48.780;9.158;2022-08-24T11:35:58;11.50;;;11.10;;
727;SDS011;347;48.780;9.158;2022-08-24T11:38:27;11.67;;;10.97;;
727;SDS011;347;48.780;9.158;2022-08-24T11:43:38;12.07;;;11.67;;
727;SDS011;347;48.780;9.158;2022-08-24T11:52:00;11.40;;;11.00;;
727;SDS011;347;48.780;9.158;2022-08-24T12:07:22;10.67;;;10.37;;
727;SDS011;347;48.780;9.158;2022-08-24T12:10:34;11.60;;;11.20;;
727;SDS011;347;48.780;9.158;2022-08-24T12:15:51;11.93;;;11.43;;
727;SDS011;347;48.780;9.158;2022-08-24T12:21:25;11.37;;;10.97;;
727;SDS011;347;48.780;9.158;2022-08-24T12:23:59;11.90;;;11.40;;
727;SDS011;347;48.780;9.158;2022-08-24T12:29:20;11.50;;;11.10;;
727;SDS011;347;48.780;9.158;2022-08-24T12:31:54;11.60;;;11.20;;
727;SDS011;347;48.780;9.158;2022-08-24T12:42:48;11.80;;;11.40;;
727;SDS011;347;48.780;9.158;2022-08-24T12:45:19;11.20;;;10.80;;
727;SDS011;347;48.780;9.158;2022-08-24T12:59:56;11.70;;;11.30;;
727;SDS011;347;48.780;9.158;2022-08-24T13:02:40;11.60;;;11.10;;
727;SDS011;347;48.780;9.158;2022-08-24T13:05:13;11.17;;;10.87;;
727;SDS011;347;48.780;9.158;2022-08-24T13:07:43;11.70;;;11.30;;
727;SDS011;347;48.780;9.158;2022-08-24T13:15:55;12.50;;;11.60;;
727;SDS011;347;48.780;9.158;2022-08-24T13:25:50;12.03;;;11.53;;
727;SDS011;347;48.780;9.158;2022-08-24T13:41:47;11.20;;;10.80;;
727;SDS011;347;48.780;9.158;2022-08-24T13:47:00;11.70;;;11.20;;
727;SDS011;347;48.780;9.158;2022-08-24T13:57:43;11.70;;;11.20;;
727;SDS011;347;48.780;9.158;2022-08-24T14:05:33;12.53;;;11.57;;
727;SDS011;347;48.780;9.158;2022-08-24T14:08:27;10.70;;;10.30;;
727;SDS011;347;48.780;9.158;2022-08-24T14:25:41;10.63;;;10.13;;
727;SDS011;347;48.780;9.158;2022-08-24T14:31:13;10.80;;;10.30;;
727;SDS011;347;48.780;9.158;2022-08-24T14:33:43;10.90;;;10.30;;
727;SDS011;347;48.780;9.158;2022-08-24T14:36:45;10.50;;;10.10;;
727;SDS011;347;48.780;9.158;2022-08-24T14:42:13;10.93;;;10.53;;
727;SDS011;347;48.780;9.158;2022-08-24T14:50:42;10.10;;;9.70;;
727;SDS011;347;48.780;9.158;2022-08-24T15:01:27;10.03;;;9.60;;
727;SDS011;347;48.780;9.158;2022-08-24T15:06:50;10.33;;;9.93;;
727;SDS011;347;48.780;9.158;2022-08-24T15:09:20;10.30;;;9.90;;
727;SDS011;347;48.780;9.158;2022-08-24T15:15:01;11.13;;;10.53;;
727;SDS011;347;48.780;9.158;2022-08-24T15:26:02;11.30;;;10.90;;
727;SDS011;347;48.780;9.158;2022-08-24T15:28:34;10.43;;;10.03;;
727;SDS011;347;48.780;9.158;2022-08-24T15:31:03;10.37;;;9.87;;
727;SDS011;347;48.780;9.158;2022-08-24T15:33:34;11.30;;;10.70;;
727;SDS011;347;48.780;9.158;2022-08-24T15:36:20;10.97;;;10.57;;
727;SDS011;347;48.780;9.158;2022-08-24T15:38:46;11.23;;;10.77;;
727;SDS011;347;48.780;9.158;2022-08-24T15:41:20;10.40;;;10.00;;
727;SDS011;347;48.780;9.158;2022-08-24T15:43:58;11.07;;;10.57;;
727;SDS011;347;48.780;9.158;2022-08-24T15:46:31;10.50;;;10.10;;
727;SDS011;347;48.780;9.158;2022-08-24T15:49:24;10.37;;;9.90;;
727;SDS011;347;48.780;9.158;2022-08-24T15:54:33;10.80;;;10.40;;
727;SDS011;347;48.780;9.158;2022-08-24T15:57:10;10.43;;;9.70;;
727;SDS011;347;48.780;9.158;2022-08-24T15:59:53;9.80;;;9.40;;
727;SDS011;347;48.780;9.158;2022-08-24T16:02:30;10.87;;;10.37;;
727;SDS011;347;48.780;9.158;2022-08-24T16:10:27;10.33;;;9.83;;
727;SDS011;347;48.780;9.158;2022-08-24T16:15:31;10.23;;;9.83;;
727;SDS011;347;48.780;9.158;2022-08-24T16:17:57;11.10;;;10.50;;
727;SDS011;347;48.780;9.158;2022-08-24T16:27:56;9.60;;;9.30;;
727;SDS011;347;48.780;9.158;2022-08-24T16:30:42;10.37;;;9.87;;
727;SDS011;347;48.780;9.158;2022-08-24T16:33:08;10.30;;;9.93;;
727;SDS011;347;48.780;9.158;2022-08-24T16:35:35;10.13;;;9.57;;
727;SDS011;347;48.780;9.158;2022-08-24T16:38:01;10.37;;;9.87;;
727;SDS011;347;48.780;9.158;2022-08-24T16:40:28;10.00;;;9.60;;
727;SDS011;347;48.780;9.158;2022-08-24T16:42:56;10.57;;;10.00;;
727;SDS011;347;48.780;9.158;2022-08-24T16:45:22;10.70;;;10.20;;
727;SDS011;347;48.780;9.158;2022-08-24T16:47:48;10.10;;;9.80;;
727;SDS011;347;48.780;9.158;2022-08-24T16:50:15;10.07;;;9.67;;
727;SDS011;347;48.780;9.158;2022-08-24T16:52:42;10.80;;;10.40;;
727;SDS011;347;48.780;9.158;2022-08-24T16:55:09;10.50;;;10.03;;
727;SDS011;347;48.780;9.158;2022-08-24T16:57:35;9.27;;;8.97;;
727;SDS011;347;48.780;9.158;2022-08-24T17:00:04;10.57;;;10.10;;
727;SDS011;347;48.780;9.158;2022-08-24T17:02:31;10.70;;;10.00;;
727;SDS011;347;48.780;9.158;2022-08-24T17:04:57;10.73;;;10.23;;
727;SDS011;347;48.780;9.158;2022-08-24T17:07:24;11.47;;;10.67;;
727;SDS011;347;48.780;9.158;2022-08-24T17:09:52;10.63;;;10.23;;
727;SDS011;347;48.780;9.158;2022-08-24T17:12:18;10.13;;;9.73;;
727;SDS011;347;48.780;9.158;2022-08-24T17:14:44;9.87;;;9.57;;
727;SDS011;347;48.780;9.158;2022-08-24T17:17:12;10.47;;;10.07;;
727;SDS011;347;48.780;9.158;2022-08-24T17:19:45;17.33;;;15.93;;
727;SDS011;347;48.780;9.158;2022-08-24T17:22:12;10.67;;;10.27;;
727;SDS011;347;48.780;9.158;2022-08-24T17:24:38;10.30;;;9.90;;
727;SDS011;347;48.780;9.158;2022-08-24T17:27:04;10.40;;;10.00;;
727;SDS011;347;48.780;9.158;2022-08-24T17:29:30;10.40;;;10.00;;
727;SDS011;347;48.780;9.158;2022-08-24T17:31:55;11.00;;;10.30;;
727;SDS011;347;48.780;9.158;2022-08-24T17:34:22;9.53;;;9.13;;
727;SDS011;347;48.780;9.158;2022-08-24T17:36:49;9.80;;;9.40;;
727;SDS011;347;48.780;9.158;2022-08-24T17:39:17;10.17;;;9.77;;
727;SDS011;347;48.780;9.158;2022-08-24T17:41:43;10.20;;;9.80;;
727;SDS011;347;48.780;9.158;2022-08-24T17:44:11;10.80;;;10.40;;
727;SDS011;347;48.780;9.158;2022-08-24T17:46:47;11.40;;;10.90;;
727;SDS011;347;48.780;9.158;2022-08-24T17:49:14;10.40;;;9.87;;
727;SDS011;347;48.780;9.158;2022-08-24T17:51:42;15.97;;;14.77;;
727;SDS011;347;48.780;9.158;2022-08-24T17:54:08;10.70;;;10.30;;
727;SDS011;347;48.780;9.158;2022-08-24T17:56:33;11.13;;;10.40;;
727;SDS011;347;48.780;9.158;2022-08-24T17:59:11;10.23;;;9.83;;
727;SDS011;347;48.780;9.158;2022-08-24T18:01:43;9.93;;;9.47;;
727;SDS011;347;48.780;9.158;2022-08-24T18:04:10;11.17;;;10.67;;
727;SDS011;347;48.780;9.158;2022-08-24T18:06:35;9.90;;;9.40;;
727;SDS011;347;48.780;9.158;2022-08-24T18:09:03;9.60;;;9.20;;
727;SDS011;347;48.780;9.158;2022-08-24T18:11:31;9.10;;;8.70;;
727;SDS011;347;48.780;9.158;2022-08-24T18:13:57;10.43;;;9.93;;
727;SDS011;347;48.780;9.158;2022-08-24T18:16:24;9.50;;;9.10;;
727;SDS011;347;48.780;9.158;2022-08-24T18:18:52;10.17;;;9.40;;
727;SDS011;347;48.780;9.158;2022-08-24T18:21:21;9.77;;;9.27;;
727;SDS011;347;48.780;9.158;2022-08-24T18:23:47;10.40;;;9.80;;
727;SDS011;347;48.780;9.158;2022-08-24T18:26:16;9.60;;;9.10;;
727;SDS011;347;48.780;9.158;2022-08-24T18:28:45;9.50;;;9.10;;
727;SDS011;347;48.780;9.158;2022-08-24T18:31:12;8.80;;;8.50;;
727;SDS011;347;48.780;9.158;2022-08-24T18:33:38;9.17;;;8.77;;
727;SDS011;347;48.780;9.158;2022-08-24T18:36:03;9.50;;;9.00;;
727;SDS011;347;48.780;9.158;2022-08-24T18:38:29;9.67;;;9.20;;
727;SDS011;347;48.780;9.158;2022-08-24T18:40:55;9.53;;;9.13;;
727;SDS011;347;48.780;9.158;2022-08-24T18:43:22;9.30;;;8.90;;
727;SDS011;347;48.780;9.158;2022-08-24T18:45:48;9.53;;;9.13;;
727;SDS011;347;48.780;9.158;2022-08-24T18:48:14;9.03;;;8.63;;
727;SDS011;347;48.780;9.158;2022-08-24T18:50:40;9.60;;;9.20;;
727;SDS011;347;48.780;9.158;2022-08-24T18:53:05;10.50;;;9.60;;
727;SDS011;347;48.780;9.158;2022-08-24T18:55:32;8.93;;;8.63;;
727;SDS011;347;48.780;9.158;2022-08-24T18:57:58;8.70;;;8.40;;
727;SDS011;347;48.780;9.158;2022-08-24T19:00:23;9.57;;;9.17;;
727;SDS011;347;48.780;9.158;2022-08-24T19:02:49;10.00;;;9.40;;
727;SDS011;347;48.780;9.158;2022-08-24T19:05:20;9.20;;;8.90;;
727;SDS011;347;48.780;9.158;2022-08-24T19:07:50;9.70;;;8.97;;
727;SDS011;347;48.780;9.158;2022-08-24T19:10:19;9.13;;;8.73;;
727;SDS011;347;48.780;9.158;2022-08-24T19:12:50;8.63;;;8.23;;
727;SDS011;347;48.780;9.158;2022-08-24T19:15:19;8.53;;;8.13;;
727;SDS011;347;48.780;9.158;2022-08-24T19:17:45;8.83;;;8.47;;
727;SDS011;347;48.780;9.158;2022-08-24T19:20:11;8.77;;;8.03;;
727;SDS011;347;48.780;9.158;2022-08-24T19:22:38;9.33;;;8.90;;
727;SDS011;347;48.780;9.158;2022-08-24T19:25:04;8.97;;;8.60;;
727;SDS011;347;48.780;9.158;2022-08-24T19:27:31;9.07;;;8.67;;
727;SDS011;347;48.780;9.158;2022-08-24T19:29:57;10.10;;;9.50;;
727;SDS011;347;48.780;9.158;2022-08-24T19:32:24;12.27;;;11.57;;
727;SDS011;347;48.780;9.158;2022-08-24T19:34:52;12.70;;;11.70;;
727;SDS011;347;48.780;9.158;2022-08-24T19:37:19;10.80;;;10.30;;
727;SDS011;347;48.780;9.158;2022-08-24T19:39:45;10.33;;;9.73;;
727;SDS011;347;48.780;9.158;2022-08-24T19:42:11;9.70;;;9.37;;
727;SDS011;347;48.780;9.158;2022-08-24T19:44:37;9.60;;;9.20;;
727;SDS011;347;48.780;9.158;2022-08-24T19:47:22;10.33;;;9.60;;
727;SDS011;347;48.780;9.158;2022-08-24T19:49:48;9.37;;;8.97;;
727;SDS011;347;48.780;9.158;2022-08-24T19:52:14;10.17;;;9.70;;